sensor_id;sensor_type;location;lat;lon;timestamp;P1;durP1;ratioP1;P2;durP2;ratioP2
8042;SDS011;4064;48.132;11.366;2023-03-31T00:00:32;8.63;;;7.33;;
8042;SDS011;4064;48.132;11.366;2023-03-31T00:02:58;16.30;;;7.70;;
8042;SDS011;4064;48.132;11.366;2023-03-31T00:05:24;11.90;;;6.30;;
8042;SDS011;4064;48.132;11.366;2023-03-31T00:07:54;8.07;;;7.23;;
8042;SDS011;4064;48.132;11.366;2023-03-31T00:10:27;8.93;;;8.03;;
8042;SDS011;4064;48.132;11.366;2023-03-31T00:12:58;10.03;;;6.87;;
8042;SDS011;4064;48.132;11.366;2023-03-31T00:15:25;8.40;;;6.83;;
8042;SDS011;4064;48.132;11.366;2023-03-31T00:17:53;8.53;;;6.70;;
8042;SDS011;4064;48.132;11.366;2023-03-31T00:20:19;7.27;;;6.60;;
8042;SDS011;4064;48.132;11.366;2023-03-31T00:22:45;10.63;;;6.07;;
8042;SDS011;4064;48.132;11.366;2023-03-31T00:25:11;7.30;;;6.60;;
8042;SDS011;4064;48.132;11.366;2023-03-31T00:27:40;8.93;;;7.20;;
8042;SDS011;4064;48.132;11.366;2023-03-31T00:30:08;10.90;;;7.67;;
8042;SDS011;4064;48.132;11.366;2023-03-31T00:32:36;9.43;;;6.97;;
8042;SDS011;4064;48.132;11.366;2023-03-31T00:35:02;7.87;;;6.97;;
8042;SDS011;4064;48.132;11.366;2023-03-31T00:37:30;13.10;;;7.40;;
8042;SDS011;4064;48.132;11.366;2023-03-31T00:39:59;9.93;;;7.43;;
8042;SDS011;4064;48.132;11.366;2023-03-31T00:42:30;9.83;;;7.93;;
8042;SDS011;4064;48.132;11.366;2023-03-31T00:47:51;7.50;;;6.20;;
8042;SDS011;4064;48.132;11.366;2023-03-31T00:50:22;8.77;;;6.43;;
8042;SDS011;4064;48.132;11.366;2023-03-31T00:52:54;9.63;;;7.07;;
8042;SDS011;4064;48.132;11.366;2023-03-31T00:55:23;8.07;;;6.70;;
8042;SDS011;4064;48.132;11.366;2023-03-31T00:58:02;9.03;;;7.60;;
8042;SDS011;4064;48.132;11.366;2023-03-31T01:00:31;11.13;;;7.53;;
8042;SDS011;4064;48.132;11.366;2023-03-31T01:02:58;11.90;;;7.20;;
8042;SDS011;4064;48.132;11.366;2023-03-31T01:05:35;12.20;;;8.70;;
8042;SDS011;4064;48.132;11.366;2023-03-31T01:08:15;10.40;;;8.03;;
8042;SDS011;4064;48.132;11.366;2023-03-31T01:10:45;10.83;;;7.80;;
8042;SDS011;4064;48.132;11.366;2023-03-31T01:13:15;9.97;;;7.70;;
8042;SDS011;4064;48.132;11.366;2023-03-31T01:15:42;11.70;;;6.57;;
8042;SDS011;4064;48.132;11.366;2023-03-31T01:18:09;14.03;;;6.20;;
8042;SDS011;4064;48.132;11.366;2023-03-31T01:42:51;6.77;;;6.17;;
8042;SDS011;4064;48.132;11.366;2023-03-31T01:51:34;7.00;;;6.30;;
8042;SDS011;4064;48.132;11.366;2023-03-31T01:54:41;9.57;;;6.30;;
8042;SDS011;4064;48.132;11.366;2023-03-31T01:57:13;7.77;;;6.20;;
8042;SDS011;4064;48.132;11.366;2023-03-31T02:00:03;8.63;;;7.73;;
8042;SDS011;4064;48.132;11.366;2023-03-31T02:05:19;10.13;;;6.90;;
8042;SDS011;4064;48.132;11.366;2023-03-31T02:10:30;10.47;;;7.20;;
8042;SDS011;4064;48.132;11.366;2023-03-31T02:12:58;8.60;;;6.83;;
8042;SDS011;4064;48.132;11.366;2023-03-31T02:15:27;9.47;;;6.67;;
8042;SDS011;4064;48.132;11.366;2023-03-31T02:18:14;8.30;;;7.20;;
8042;SDS011;4064;48.132;11.366;2023-03-31T02:20:43;10.50;;;7.13;;
8042;SDS011;4064;48.132;11.366;2023-03-31T02:23:13;7.07;;;6.30;;
8042;SDS011;4064;48.132;11.366;2023-03-31T02:25:42;7.93;;;6.63;;
8042;SDS011;4064;48.132;11.366;2023-03-31T02:28:14;11.70;;;6.60;;
8042;SDS011;4064;48.132;11.366;2023-03-31T02:33:33;15.20;;;7.33;;
8042;SDS011;4064;48.132;11.366;2023-03-31T02:35:59;7.30;;;6.60;;
8042;SDS011;4064;48.132;11.366;2023-03-31T02:38:26;8.10;;;7.30;;
8042;SDS011;4064;48.132;11.366;2023-03-31T02:40:52;7.80;;;7.10;;
8042;SDS011;4064;48.132;11.366;2023-03-31T02:43:18;11.30;;;7.77;;
8042;SDS011;4064;48.132;11.366;2023-03-31T02:45:48;8.70;;;6.53;;
8042;SDS011;4064;48.132;11.366;2023-03-31T02:48:22;7.33;;;6.63;;
8042;SDS011;4064;48.132;11.366;2023-03-31T02:54:12;10.03;;;7.47;;
8042;SDS011;4064;48.132;11.366;2023-03-31T03:00:02;8.53;;;6.47;;
8042;SDS011;4064;48.132;11.366;2023-03-31T03:05:35;9.83;;;7.70;;
8042;SDS011;4064;48.132;11.366;2023-03-31T03:13:44;8.97;;;5.90;;
8042;SDS011;4064;48.132;11.366;2023-03-31T03:16:36;14.33;;;7.63;;
8042;SDS011;4064;48.132;11.366;2023-03-31T03:19:05;9.33;;;7.33;;
8042;SDS011;4064;48.132;11.366;2023-03-31T03:21:32;8.17;;;7.30;;
8042;SDS011;4064;48.132;11.366;2023-03-31T03:23:58;15.33;;;7.30;;
8042;SDS011;4064;48.132;11.366;2023-03-31T03:26:26;8.40;;;6.33;;
8042;SDS011;4064;48.132;11.366;2023-03-31T03:28:53;9.73;;;6.47;;
8042;SDS011;4064;48.132;11.366;2023-03-31T03:31:19;9.33;;;7.07;;
8042;SDS011;4064;48.132;11.366;2023-03-31T03:33:49;11.23;;;9.70;;
8042;SDS011;4064;48.132;11.366;2023-03-31T03:36:16;9.40;;;6.97;;
8042;SDS011;4064;48.132;11.366;2023-03-31T03:38:42;9.53;;;7.47;;
8042;SDS011;4064;48.132;11.366;2023-03-31T03:41:08;9.40;;;6.50;;
8042;SDS011;4064;48.132;11.366;2023-03-31T03:43:34;9.70;;;7.40;;
8042;SDS011;4064;48.132;11.366;2023-03-31T03:45:59;9.30;;;7.47;;
8042;SDS011;4064;48.132;11.366;2023-03-31T03:48:25;10.00;;;7.80;;
8042;SDS011;4064;48.132;11.366;2023-03-31T03:50:51;9.53;;;7.00;;
8042;SDS011;4064;48.132;11.366;2023-03-31T03:53:18;9.13;;;8.10;;
8042;SDS011;4064;48.132;11.366;2023-03-31T03:55:44;10.40;;;7.30;;
8042;SDS011;4064;48.132;11.366;2023-03-31T03:58:13;9.57;;;8.50;;
8042;SDS011;4064;48.132;11.366;2023-03-31T04:00:40;8.80;;;7.10;;
8042;SDS011;4064;48.132;11.366;2023-03-31T04:03:06;16.37;;;7.90;;
8042;SDS011;4064;48.132;11.366;2023-03-31T04:05:32;8.63;;;7.63;;
8042;SDS011;4064;48.132;11.366;2023-03-31T04:07:58;11.83;;;7.33;;
8042;SDS011;4064;48.132;11.366;2023-03-31T04:10:24;9.90;;;8.33;;
8042;SDS011;4064;48.132;11.366;2023-03-31T04:12:50;9.10;;;7.40;;
8042;SDS011;4064;48.132;11.366;2023-03-31T04:15:16;15.37;;;8.23;;
8042;SDS011;4064;48.132;11.366;2023-03-31T04:17:41;10.60;;;8.33;;
8042;SDS011;4064;48.132;11.366;2023-03-31T04:20:12;11.77;;;9.10;;
8042;SDS011;4064;48.132;11.366;2023-03-31T04:22:38;13.47;;;8.40;;
8042;SDS011;4064;48.132;11.366;2023-03-31T04:25:05;9.50;;;8.60;;
8042;SDS011;4064;48.132;11.366;2023-03-31T04:27:34;15.43;;;9.90;;
8042;SDS011;4064;48.132;11.366;2023-03-31T04:30:01;10.13;;;9.00;;
8042;SDS011;4064;48.132;11.366;2023-03-31T04:32:27;14.37;;;8.87;;
8042;SDS011;4064;48.132;11.366;2023-03-31T04:34:56;15.60;;;9.07;;
8042;SDS011;4064;48.132;11.366;2023-03-31T04:37:28;13.23;;;8.57;;
8042;SDS011;4064;48.132;11.366;2023-03-31T04:39:59;11.50;;;8.20;;
8042;SDS011;4064;48.132;11.366;2023-03-31T04:42:35;11.57;;;8.57;;
8042;SDS011;4064;48.132;11.366;2023-03-31T04:45:01;9.47;;;8.47;;
8042;SDS011;4064;48.132;11.366;2023-03-31T04:47:27;13.00;;;8.83;;
8042;SDS011;4064;48.132;11.366;2023-03-31T04:49:53;16.67;;;8.50;;
8042;SDS011;4064;48.132;11.366;2023-03-31T04:52:19;10.73;;;8.93;;
8042;SDS011;4064;48.132;11.366;2023-03-31T04:54:45;11.13;;;9.87;;
8042;SDS011;4064;48.132;11.366;2023-03-31T04:57:11;12.93;;;8.83;;
8042;SDS011;4064;48.132;11.366;2023-03-31T04:59:37;10.73;;;8.73;;
8042;SDS011;4064;48.132;11.366;2023-03-31T05:02:03;10.50;;;9.40;;
8042;SDS011;4064;48.132;11.366;2023-03-31T05:04:29;13.50;;;9.30;;
8042;SDS011;4064;48.132;11.366;2023-03-31T05:06:55;13.43;;;9.63;;
8042;SDS011;4064;48.132;11.366;2023-03-31T05:09:21;11.67;;;10.30;;
8042;SDS011;4064;48.132;11.366;2023-03-31T05:11:47;14.83;;;9.80;;
8042;SDS011;4064;48.132;11.366;2023-03-31T05:14:13;15.27;;;9.40;;
8042;SDS011;4064;48.132;11.366;2023-03-31T05:16:39;12.70;;;10.23;;
8042;SDS011;4064;48.132;11.366;2023-03-31T05:19:06;11.13;;;9.43;;
8042;SDS011;4064;48.132;11.366;2023-03-31T05:21:32;16.53;;;11.53;;
8042;SDS011;4064;48.132;11.366;2023-03-31T05:23:57;11.10;;;9.60;;
8042;SDS011;4064;48.132;11.366;2023-03-31T05:26:24;14.80;;;9.30;;
8042;SDS011;4064;48.132;11.366;2023-03-31T05:28:50;12.87;;;10.87;;
8042;SDS011;4064;48.132;11.366;2023-03-31T05:31:17;13.40;;;9.13;;
8042;SDS011;4064;48.132;11.366;2023-03-31T05:33:43;14.60;;;9.90;;
8042;SDS011;4064;48.132;11.366;2023-03-31T05:36:09;10.33;;;9.30;;
8042;SDS011;4064;48.132;11.366;2023-03-31T05:38:38;12.80;;;11.60;;
8042;SDS011;4064;48.132;11.366;2023-03-31T05:41:05;11.27;;;10.17;;
8042;SDS011;4064;48.132;11.366;2023-03-31T05:43:33;12.60;;;10.50;;
8042;SDS011;4064;48.132;11.366;2023-03-31T05:45:59;10.80;;;9.70;;
8042;SDS011;4064;48.132;11.366;2023-03-31T05:48:25;11.00;;;9.67;;
8042;SDS011;4064;48.132;11.366;2023-03-31T05:50:54;10.37;;;8.60;;
8042;SDS011;4064;48.132;11.366;2023-03-31T05:53:22;11.97;;;9.67;;
8042;SDS011;4064;48.132;11.366;2023-03-31T05:55:49;12.13;;;9.23;;
8042;SDS011;4064;48.132;11.366;2023-03-31T05:58:25;10.60;;;9.50;;
8042;SDS011;4064;48.132;11.366;2023-03-31T06:01:01;19.00;;;10.70;;
8042;SDS011;4064;48.132;11.366;2023-03-31T06:03:30;14.93;;;9.43;;
8042;SDS011;4064;48.132;11.366;2023-03-31T06:06:00;10.67;;;8.83;;
8042;SDS011;4064;48.132;11.366;2023-03-31T06:08:26;13.27;;;8.60;;
8042;SDS011;4064;48.132;11.366;2023-03-31T06:10:53;10.37;;;9.03;;
8042;SDS011;4064;48.132;11.366;2023-03-31T06:13:19;14.97;;;11.73;;
8042;SDS011;4064;48.132;11.366;2023-03-31T06:15:52;10.67;;;9.10;;
8042;SDS011;4064;48.132;11.366;2023-03-31T06:18:22;12.30;;;8.50;;
8042;SDS011;4064;48.132;11.366;2023-03-31T06:20:49;10.77;;;8.27;;
8042;SDS011;4064;48.132;11.366;2023-03-31T06:23:16;9.80;;;8.80;;
8042;SDS011;4064;48.132;11.366;2023-03-31T06:25:42;8.57;;;7.20;;
8042;SDS011;4064;48.132;11.366;2023-03-31T06:28:08;14.67;;;8.97;;
8042;SDS011;4064;48.132;11.366;2023-03-31T06:30:34;9.20;;;7.80;;
8042;SDS011;4064;48.132;11.366;2023-03-31T06:33:03;11.00;;;7.77;;
8042;SDS011;4064;48.132;11.366;2023-03-31T06:35:29;9.90;;;8.10;;
8042;SDS011;4064;48.132;11.366;2023-03-31T06:37:55;10.20;;;7.70;;
8042;SDS011;4064;48.132;11.366;2023-03-31T06:40:22;10.13;;;8.40;;
8042;SDS011;4064;48.132;11.366;2023-03-31T06:42:48;7.67;;;6.87;;
8042;SDS011;4064;48.132;11.366;2023-03-31T06:45:14;13.33;;;7.37;;
8042;SDS011;4064;48.132;11.366;2023-03-31T06:47:40;10.90;;;6.60;;
8042;SDS011;4064;48.132;11.366;2023-03-31T06:50:08;9.20;;;7.63;;
8042;SDS011;4064;48.132;11.366;2023-03-31T06:52:35;9.63;;;6.80;;
8042;SDS011;4064;48.132;11.366;2023-03-31T06:55:03;11.00;;;8.57;;
8042;SDS011;4064;48.132;11.366;2023-03-31T06:57:30;9.07;;;8.27;;
8042;SDS011;4064;48.132;11.366;2023-03-31T06:59:58;9.37;;;8.40;;
8042;SDS011;4064;48.132;11.366;2023-03-31T07:02:24;8.60;;;7.20;;
8042;SDS011;4064;48.132;11.366;2023-03-31T07:04:52;9.80;;;8.70;;
8042;SDS011;4064;48.132;11.366;2023-03-31T07:07:20;9.73;;;8.20;;
8042;SDS011;4064;48.132;11.366;2023-03-31T07:09:47;9.47;;;8.47;;
8042;SDS011;4064;48.132;11.366;2023-03-31T07:12:13;14.07;;;8.10;;
8042;SDS011;4064;48.132;11.366;2023-03-31T07:14:39;9.43;;;8.23;;
8042;SDS011;4064;48.132;11.366;2023-03-31T07:17:05;10.67;;;9.57;;
8042;SDS011;4064;48.132;11.366;2023-03-31T07:19:32;13.60;;;8.93;;
8042;SDS011;4064;48.132;11.366;2023-03-31T07:22:02;9.63;;;8.43;;
8042;SDS011;4064;48.132;11.366;2023-03-31T07:24:30;10.90;;;9.53;;
8042;SDS011;4064;48.132;11.366;2023-03-31T07:26:57;13.97;;;9.10;;
8042;SDS011;4064;48.132;11.366;2023-03-31T07:29:27;11.87;;;8.93;;
8042;SDS011;4064;48.132;11.366;2023-03-31T07:31:53;14.60;;;9.10;;
8042;SDS011;4064;48.132;11.366;2023-03-31T07:34:19;15.70;;;10.93;;
8042;SDS011;4064;48.132;11.366;2023-03-31T07:36:45;13.00;;;10.43;;
8042;SDS011;4064;48.132;11.366;2023-03-31T07:39:11;11.70;;;10.60;;
8042;SDS011;4064;48.132;11.366;2023-03-31T07:41:37;14.07;;;10.83;;
8042;SDS011;4064;48.132;11.366;2023-03-31T07:44:04;14.07;;;10.23;;
8042;SDS011;4064;48.132;11.366;2023-03-31T07:46:36;10.37;;;9.40;;
8042;SDS011;4064;48.132;11.366;2023-03-31T07:49:04;14.33;;;11.20;;
8042;SDS011;4064;48.132;11.366;2023-03-31T07:51:31;12.93;;;9.83;;
8042;SDS011;4064;48.132;11.366;2023-03-31T07:53:58;15.80;;;10.40;;
8042;SDS011;4064;48.132;11.366;2023-03-31T07:56:24;12.77;;;11.47;;
8042;SDS011;4064;48.132;11.366;2023-03-31T07:58:50;11.57;;;10.37;;
8042;SDS011;4064;48.132;11.366;2023-03-31T08:01:17;11.70;;;10.10;;
8042;SDS011;4064;48.132;11.366;2023-03-31T08:03:45;12.87;;;9.30;;
8042;SDS011;4064;48.132;11.366;2023-03-31T08:06:17;15.23;;;12.20;;
8042;SDS011;4064;48.132;11.366;2023-03-31T08:08:43;13.07;;;9.53;;
8042;SDS011;4064;48.132;11.366;2023-03-31T08:11:10;11.47;;;9.50;;
8042;SDS011;4064;48.132;11.366;2023-03-31T08:13:36;11.23;;;10.13;;
8042;SDS011;4064;48.132;11.366;2023-03-31T08:16:02;9.50;;;7.77;;
8042;SDS011;4064;48.132;11.366;2023-03-31T08:18:28;8.97;;;7.97;;
8042;SDS011;4064;48.132;11.366;2023-03-31T08:20:55;8.40;;;7.60;;
8042;SDS011;4064;48.132;11.366;2023-03-31T08:23:21;8.73;;;7.77;;
8042;SDS011;4064;48.132;11.366;2023-03-31T08:25:47;10.80;;;7.60;;
8042;SDS011;4064;48.132;11.366;2023-03-31T08:28:13;8.60;;;7.73;;
8042;SDS011;4064;48.132;11.366;2023-03-31T08:30:39;8.60;;;7.50;;
8042;SDS011;4064;48.132;11.366;2023-03-31T08:33:06;10.60;;;7.90;;
8042;SDS011;4064;48.132;11.366;2023-03-31T08:35:33;8.23;;;7.33;;
8042;SDS011;4064;48.132;11.366;2023-03-31T08:38:00;7.80;;;7.10;;
8042;SDS011;4064;48.132;11.366;2023-03-31T08:40:26;7.93;;;6.30;;
8042;SDS011;4064;48.132;11.366;2023-03-31T08:43:07;6.83;;;6.13;;
8042;SDS011;4064;48.132;11.366;2023-03-31T08:45:40;7.27;;;5.83;;
8042;SDS011;4064;48.132;11.366;2023-03-31T08:48:18;6.00;;;5.40;;
8042;SDS011;4064;48.132;11.366;2023-03-31T08:50:55;6.50;;;5.90;;
8042;SDS011;4064;48.132;11.366;2023-03-31T08:53:31;8.37;;;5.77;;
8042;SDS011;4064;48.132;11.366;2023-03-31T08:56:02;8.40;;;6.10;;
8042;SDS011;4064;48.132;11.366;2023-03-31T09:04:05;6.20;;;5.60;;
8042;SDS011;4064;48.132;11.366;2023-03-31T09:15:47;5.97;;;5.17;;
8042;SDS011;4064;48.132;11.366;2023-03-31T09:18:34;6.83;;;5.23;;
8042;SDS011;4064;48.132;11.366;2023-03-31T09:21:14;5.70;;;4.40;;
8042;SDS011;4064;48.132;11.366;2023-03-31T09:24:07;3.60;;;3.27;;
8042;SDS011;4064;48.132;11.366;2023-03-31T09:32:25;4.00;;;3.13;;
8042;SDS011;4064;48.132;11.366;2023-03-31T09:35:13;4.17;;;2.43;;
8042;SDS011;4064;48.132;11.366;2023-03-31T09:37:42;2.80;;;2.20;;
8042;SDS011;4064;48.132;11.366;2023-03-31T09:40:14;2.83;;;2.13;;
8042;SDS011;4064;48.132;11.366;2023-03-31T09:43:01;2.80;;;2.33;;
8042;SDS011;4064;48.132;11.366;2023-03-31T09:45:30;2.30;;;2.10;;
8042;SDS011;4064;48.132;11.366;2023-03-31T09:47:58;2.60;;;2.40;;
8042;SDS011;4064;48.132;11.366;2023-03-31T09:51:08;3.47;;;2.70;;
8042;SDS011;4064;48.132;11.366;2023-03-31T09:53:47;2.83;;;2.13;;
8042;SDS011;4064;48.132;11.366;2023-03-31T09:56:30;3.30;;;2.67;;
8042;SDS011;4064;48.132;11.366;2023-03-31T09:59:01;2.60;;;2.00;;
8042;SDS011;4064;48.132;11.366;2023-03-31T10:01:28;2.97;;;2.70;;
8042;SDS011;4064;48.132;11.366;2023-03-31T10:03:55;2.63;;;2.30;;
8042;SDS011;4064;48.132;11.366;2023-03-31T10:06:22;2.20;;;2.00;;
8042;SDS011;4064;48.132;11.366;2023-03-31T10:08:53;2.80;;;2.40;;
8042;SDS011;4064;48.132;11.366;2023-03-31T10:11:29;3.33;;;2.33;;
8042;SDS011;4064;48.132;11.366;2023-03-31T10:14:02;3.27;;;2.53;;
8042;SDS011;4064;48.132;11.366;2023-03-31T10:16:54;4.30;;;2.47;;
8042;SDS011;4064;48.132;11.366;2023-03-31T10:19:26;6.20;;;3.10;;
8042;SDS011;4064;48.132;11.366;2023-03-31T10:21:56;4.00;;;2.47;;
8042;SDS011;4064;48.132;11.366;2023-03-31T10:24:24;4.63;;;3.97;;
8042;SDS011;4064;48.132;11.366;2023-03-31T10:26:52;4.57;;;3.00;;
8042;SDS011;4064;48.132;11.366;2023-03-31T10:29:25;3.20;;;2.90;;
8042;SDS011;4064;48.132;11.366;2023-03-31T10:32:04;3.00;;;2.70;;
8042;SDS011;4064;48.132;11.366;2023-03-31T10:34:49;4.33;;;3.13;;
8042;SDS011;4064;48.132;11.366;2023-03-31T10:37:16;4.10;;;3.10;;
8042;SDS011;4064;48.132;11.366;2023-03-31T10:39:46;4.80;;;3.80;;
8042;SDS011;4064;48.132;11.366;2023-03-31T10:42:22;5.97;;;3.20;;
8042;SDS011;4064;48.132;11.366;2023-03-31T10:45:09;6.97;;;3.87;;
8042;SDS011;4064;48.132;11.366;2023-03-31T10:47:39;6.93;;;3.47;;
8042;SDS011;4064;48.132;11.366;2023-03-31T10:50:12;5.07;;;3.10;;
8042;SDS011;4064;48.132;11.366;2023-03-31T10:52:44;5.00;;;3.70;;
8042;SDS011;4064;48.132;11.366;2023-03-31T10:55:11;4.73;;;3.73;;
8042;SDS011;4064;48.132;11.366;2023-03-31T10:57:57;3.90;;;3.50;;
8042;SDS011;4064;48.132;11.366;2023-03-31T11:03:09;5.37;;;3.90;;
8042;SDS011;4064;48.132;11.366;2023-03-31T11:05:44;6.77;;;3.73;;
8042;SDS011;4064;48.132;11.366;2023-03-31T11:08:24;6.67;;;3.67;;
8042;SDS011;4064;48.132;11.366;2023-03-31T11:14:03;2.37;;;1.83;;
8042;SDS011;4064;48.132;11.366;2023-03-31T11:17:03;4.13;;;2.43;;
8042;SDS011;4064;48.132;11.366;2023-03-31T11:38:58;3.80;;;1.87;;
8042;SDS011;4064;48.132;11.366;2023-03-31T11:42:06;2.90;;;1.63;;
8042;SDS011;4064;48.132;11.366;2023-03-31T11:44:42;6.00;;;1.67;;
8042;SDS011;4064;48.132;11.366;2023-03-31T11:47:21;3.33;;;2.03;;
8042;SDS011;4064;48.132;11.366;2023-03-31T11:49:55;3.40;;;2.17;;
8042;SDS011;4064;48.132;11.366;2023-03-31T11:52:27;2.57;;;1.43;;
8042;SDS011;4064;48.132;11.366;2023-03-31T11:58:03;3.27;;;1.80;;
8042;SDS011;4064;48.132;11.366;2023-03-31T12:00:37;3.33;;;2.00;;
8042;SDS011;4064;48.132;11.366;2023-03-31T12:03:29;3.20;;;1.57;;
8042;SDS011;4064;48.132;11.366;2023-03-31T12:06:22;2.63;;;2.23;;
8042;SDS011;4064;48.132;11.366;2023-03-31T12:09:03;2.87;;;2.17;;
8042;SDS011;4064;48.132;11.366;2023-03-31T12:11:56;3.00;;;1.57;;
8042;SDS011;4064;48.132;11.366;2023-03-31T12:14:47;2.70;;;1.87;;
8042;SDS011;4064;48.132;11.366;2023-03-31T12:17:18;2.90;;;2.10;;
8042;SDS011;4064;48.132;11.366;2023-03-31T12:20:11;8.03;;;2.60;;
8042;SDS011;4064;48.132;11.366;2023-03-31T12:22:58;12.40;;;7.47;;
8042;SDS011;4064;48.132;11.366;2023-03-31T12:25:29;2.20;;;1.63;;
8042;SDS011;4064;48.132;11.366;2023-03-31T12:28:15;3.13;;;1.70;;
8042;SDS011;4064;48.132;11.366;2023-03-31T12:30:43;3.37;;;1.80;;
8042;SDS011;4064;48.132;11.366;2023-03-31T12:41:19;3.20;;;1.87;;
8042;SDS011;4064;48.132;11.366;2023-03-31T12:49:15;3.37;;;2.10;;
8042;SDS011;4064;48.132;11.366;2023-03-31T12:57:20;6.43;;;2.67;;
8042;SDS011;4064;48.132;11.366;2023-03-31T13:02:36;2.00;;;1.70;;
8042;SDS011;4064;48.132;11.366;2023-03-31T13:08:03;1.73;;;1.03;;
8042;SDS011;4064;48.132;11.366;2023-03-31T13:10:32;2.53;;;1.13;;
8042;SDS011;4064;48.132;11.366;2023-03-31T13:13:18;3.43;;;0.97;;
8042;SDS011;4064;48.132;11.366;2023-03-31T13:15:54;4.10;;;1.10;;
8042;SDS011;4064;48.132;11.366;2023-03-31T13:18:23;2.53;;;1.10;;
8042;SDS011;4064;48.132;11.366;2023-03-31T13:21:00;2.20;;;1.07;;
8042;SDS011;4064;48.132;11.366;2023-03-31T13:23:33;6.43;;;1.50;;
8042;SDS011;4064;48.132;11.366;2023-03-31T13:26:01;2.73;;;0.90;;
8042;SDS011;4064;48.132;11.366;2023-03-31T13:28:41;4.63;;;3.87;;
8042;SDS011;4064;48.132;11.366;2023-03-31T13:33:55;8.10;;;7.20;;
8042;SDS011;4064;48.132;11.366;2023-03-31T13:36:27;1.50;;;1.03;;
8042;SDS011;4064;48.132;11.366;2023-03-31T13:41:43;1.90;;;1.40;;
8042;SDS011;4064;48.132;11.366;2023-03-31T13:52:38;3.00;;;1.10;;
8042;SDS011;4064;48.132;11.366;2023-03-31T13:55:25;2.43;;;1.33;;
8042;SDS011;4064;48.132;11.366;2023-03-31T14:07:00;3.40;;;1.30;;
8042;SDS011;4064;48.132;11.366;2023-03-31T14:09:47;3.10;;;1.10;;
8042;SDS011;4064;48.132;11.366;2023-03-31T14:12:24;2.40;;;1.10;;
8042;SDS011;4064;48.132;11.366;2023-03-31T14:14:55;3.83;;;1.50;;
8042;SDS011;4064;48.132;11.366;2023-03-31T14:17:39;3.20;;;1.30;;
8042;SDS011;4064;48.132;11.366;2023-03-31T14:20:21;2.50;;;1.37;;
8042;SDS011;4064;48.132;11.366;2023-03-31T14:23:16;2.10;;;1.40;;
8042;SDS011;4064;48.132;11.366;2023-03-31T14:25:56;4.10;;;1.20;;
8042;SDS011;4064;48.132;11.366;2023-03-31T14:39:19;1.87;;;0.90;;
8042;SDS011;4064;48.132;11.366;2023-03-31T14:41:52;1.37;;;0.80;;
8042;SDS011;4064;48.132;11.366;2023-03-31T14:44:39;4.30;;;0.80;;
8042;SDS011;4064;48.132;11.366;2023-03-31T14:47:13;2.27;;;1.20;;
8042;SDS011;4064;48.132;11.366;2023-03-31T14:49:39;1.50;;;0.73;;
8042;SDS011;4064;48.132;11.366;2023-03-31T14:54:43;1.27;;;0.90;;
8042;SDS011;4064;48.132;11.366;2023-03-31T14:57:16;1.83;;;1.30;;
8042;SDS011;4064;48.132;11.366;2023-03-31T14:59:45;3.20;;;1.70;;
8042;SDS011;4064;48.132;11.366;2023-03-31T15:02:16;1.40;;;1.00;;
8042;SDS011;4064;48.132;11.366;2023-03-31T15:04:53;2.77;;;1.20;;
8042;SDS011;4064;48.132;11.366;2023-03-31T15:07:20;3.20;;;2.90;;
8042;SDS011;4064;48.132;11.366;2023-03-31T15:09:48;2.07;;;1.17;;
8042;SDS011;4064;48.132;11.366;2023-03-31T15:12:16;2.23;;;1.40;;
8042;SDS011;4064;48.132;11.366;2023-03-31T15:14:45;2.33;;;1.10;;
8042;SDS011;4064;48.132;11.366;2023-03-31T15:17:29;1.70;;;0.97;;
8042;SDS011;4064;48.132;11.366;2023-03-31T15:20:16;1.60;;;1.23;;
8042;SDS011;4064;48.132;11.366;2023-03-31T15:22:52;3.90;;;1.03;;
8042;SDS011;4064;48.132;11.366;2023-03-31T15:25:20;1.70;;;1.00;;
8042;SDS011;4064;48.132;11.366;2023-03-31T15:28:11;4.10;;;2.57;;
8042;SDS011;4064;48.132;11.366;2023-03-31T15:30:41;13.93;;;9.70;;
8042;SDS011;4064;48.132;11.366;2023-03-31T15:33:07;12.53;;;9.60;;
8042;SDS011;4064;48.132;11.366;2023-03-31T15:35:52;2.17;;;1.90;;
8042;SDS011;4064;48.132;11.366;2023-03-31T15:38:18;5.57;;;2.40;;
8042;SDS011;4064;48.132;11.366;2023-03-31T15:40:44;5.93;;;1.47;;
8042;SDS011;4064;48.132;11.366;2023-03-31T15:43:18;3.90;;;1.90;;
8042;SDS011;4064;48.132;11.366;2023-03-31T15:45:58;2.37;;;1.73;;
8042;SDS011;4064;48.132;11.366;2023-03-31T15:48:31;3.53;;;1.63;;
8042;SDS011;4064;48.132;11.366;2023-03-31T15:51:02;3.50;;;1.60;;
8042;SDS011;4064;48.132;11.366;2023-03-31T15:53:47;5.33;;;1.83;;
8042;SDS011;4064;48.132;11.366;2023-03-31T15:56:30;3.13;;;1.60;;
8042;SDS011;4064;48.132;11.366;2023-03-31T15:59:05;2.27;;;1.50;;
8042;SDS011;4064;48.132;11.366;2023-03-31T16:01:51;3.73;;;1.60;;
8042;SDS011;4064;48.132;11.366;2023-03-31T16:04:20;2.43;;;1.30;;
8042;SDS011;4064;48.132;11.366;2023-03-31T16:06:55;2.60;;;1.27;;
8042;SDS011;4064;48.132;11.366;2023-03-31T16:12:23;3.83;;;1.57;;
8042;SDS011;4064;48.132;11.366;2023-03-31T16:15:06;2.40;;;1.40;;
8042;SDS011;4064;48.132;11.366;2023-03-31T16:17:40;3.30;;;1.27;;
8042;SDS011;4064;48.132;11.366;2023-03-31T16:20:19;2.90;;;1.30;;
8042;SDS011;4064;48.132;11.366;2023-03-31T16:22:52;3.80;;;1.73;;
8042;SDS011;4064;48.132;11.366;2023-03-31T16:25:23;4.07;;;2.60;;
8042;SDS011;4064;48.132;11.366;2023-03-31T16:28:00;3.40;;;1.80;;
8042;SDS011;4064;48.132;11.366;2023-03-31T16:30:41;3.00;;;1.93;;
8042;SDS011;4064;48.132;11.366;2023-03-31T16:33:15;3.60;;;2.20;;
8042;SDS011;4064;48.132;11.366;2023-03-31T16:35:46;5.07;;;2.30;;
8042;SDS011;4064;48.132;11.366;2023-03-31T16:38:15;3.17;;;1.77;;
8042;SDS011;4064;48.132;11.366;2023-03-31T16:40:48;3.10;;;2.20;;
8042;SDS011;4064;48.132;11.366;2023-03-31T16:43:22;5.70;;;2.23;;
8042;SDS011;4064;48.132;11.366;2023-03-31T16:45:57;6.33;;;2.77;;
8042;SDS011;4064;48.132;11.366;2023-03-31T16:48:26;4.03;;;1.97;;
8042;SDS011;4064;48.132;11.366;2023-03-31T16:50:56;2.40;;;0.93;;
8042;SDS011;4064;48.132;11.366;2023-03-31T16:53:25;1.53;;;0.97;;
8042;SDS011;4064;48.132;11.366;2023-03-31T16:55:53;2.07;;;0.70;;
8042;SDS011;4064;48.132;11.366;2023-03-31T16:58:19;1.80;;;0.90;;
8042;SDS011;4064;48.132;11.366;2023-03-31T17:00:46;1.00;;;0.60;;
8042;SDS011;4064;48.132;11.366;2023-03-31T17:03:12;3.20;;;1.23;;
8042;SDS011;4064;48.132;11.366;2023-03-31T17:05:41;2.50;;;0.90;;
8042;SDS011;4064;48.132;11.366;2023-03-31T17:08:12;1.30;;;1.00;;
8042;SDS011;4064;48.132;11.366;2023-03-31T17:10:39;1.53;;;0.80;;
8042;SDS011;4064;48.132;11.366;2023-03-31T17:13:06;2.03;;;1.17;;
8042;SDS011;4064;48.132;11.366;2023-03-31T17:15:34;2.83;;;0.90;;
8042;SDS011;4064;48.132;11.366;2023-03-31T17:18:02;1.77;;;0.80;;
8042;SDS011;4064;48.132;11.366;2023-03-31T17:20:28;0.90;;;0.70;;
8042;SDS011;4064;48.132;11.366;2023-03-31T17:22:55;1.10;;;0.80;;
8042;SDS011;4064;48.132;11.366;2023-03-31T17:25:22;1.10;;;0.80;;
8042;SDS011;4064;48.132;11.366;2023-03-31T17:27:48;1.47;;;0.90;;
8042;SDS011;4064;48.132;11.366;2023-03-31T17:30:14;1.00;;;0.77;;
8042;SDS011;4064;48.132;11.366;2023-03-31T17:32:40;3.40;;;0.80;;
8042;SDS011;4064;48.132;11.366;2023-03-31T17:35:07;1.20;;;0.83;;
8042;SDS011;4064;48.132;11.366;2023-03-31T17:37:35;2.10;;;1.10;;
8042;SDS011;4064;48.132;11.366;2023-03-31T17:40:02;1.93;;;0.90;;
8042;SDS011;4064;48.132;11.366;2023-03-31T17:42:29;1.83;;;1.10;;
8042;SDS011;4064;48.132;11.366;2023-03-31T17:44:55;2.63;;;1.97;;
8042;SDS011;4064;48.132;11.366;2023-03-31T17:47:22;2.93;;;1.30;;
8042;SDS011;4064;48.132;11.366;2023-03-31T17:49:48;1.63;;;0.90;;
8042;SDS011;4064;48.132;11.366;2023-03-31T17:52:14;1.97;;;1.10;;
8042;SDS011;4064;48.132;11.366;2023-03-31T17:54:40;2.17;;;1.30;;
8042;SDS011;4064;48.132;11.366;2023-03-31T17:57:06;1.53;;;0.87;;
8042;SDS011;4064;48.132;11.366;2023-03-31T17:59:32;3.00;;;1.20;;
8042;SDS011;4064;48.132;11.366;2023-03-31T18:01:59;2.23;;;1.20;;
8042;SDS011;4064;48.132;11.366;2023-03-31T18:04:25;1.50;;;0.90;;
8042;SDS011;4064;48.132;11.366;2023-03-31T18:06:52;2.13;;;1.00;;